Detall de PIREP

Printer-friendly versionPDF version

[2011/06/04 17:33:00]
Flight IATA:CT3115
Pilot Number:026
Company ICAO:CAT
Aircraft Type:DC85/A
PAX:132
Departing Airport: LEVC
Destination Airport: LEBL
Alternate Airport:LEGE
Online: VATSIM
Route:SOPET N609 MATEX
Flight Level:F160
No Slew and time accel
No pause
Crash detect
Detect pilot in Cockpit between each 30 and 45 minutes
17:33 Zero fuel Weight: 178198 Lbs, Fuel Weight: 19007 Lbs
17:33 VATSIM:LEVC 041700Z 08005KT 020V140 9999 FEW035 21/12 Q1013 NOSIG
17:33 VATSIM:LEBL 041630Z 15005KT 100V250 9999 SCT020 20/13 Q1013 NOSIG
17:34 VOICE CATALONIAN / INTERHUB ROUTE CT3115
17:41 Parking Brakes off
17:48 Take-off
17:48 Take off Weight: 196038 Lbs
17:48 Wind: 074º @ 006 Knots Heading: 114º
17:48 POS N39º 29´ 20´´ W000º 28´ 49´´
17:49 Gear Up: 169 Knots
17:49 Flaps:2 at 169 Knots
17:49 Flaps:1 at 182 Knots
17:50 Flaps:0 at 208 Knots
17:55 TOC
17:55 Fuel Weight: 15615 Lb
18:04 Wind:082º@007 Knots Heading: 016º Ground Speed: 405 Knots Altitude 15987 ft
18:06 TOD
18:06 Fuel Weight: 13380 Lb
18:06 TOC
18:06 Fuel Weight: 13327 Lb
18:12 TOD
18:12 Fuel Weight: 12021 Lb
18:19 Wind:226º@007 Knots Heading: 068º Ground Speed: 294 Knots Altitude 8815 ft
18:25 Gear Down: 193 Knots
18:25 Flaps:1 at 189 Knots
18:26 Flaps:2 at 142 Knots
18:27 Flaps:3 at 143 Knots
18:27 Flaps:4 at 145 Knots
18:28 TouchDown:Rate -149 ft/min Speed: 127 Knots
18:29 VATSIM:LEBL 041800Z 21005KT 160V250 9999 SCT020 20/14 Q1013 NOSIG
18:29 Land
18:29 Wind:200º@005 Knots
18:29 Heading: 252º
18:29 Flight Duration: 00:40
18:29 Landing Weight: 188839 Lbs
18:29 POS N41º 17´ 58´´ E002º 05´ 08´´
18:32 Parking brakes on
18:32 Block to Block Duration: 00:51
18:32 Final Fuel: 10425 Lbls
18:32 Spent Fuel: 8582 Lbls
18:32 Flight Length: 208 NM
18:32 TODLand Length: 75 NM

Exportar CSV

Powered by Drupal - Modified by Danger4k